Portada
METAR-TAF:

METAR-TAF

Aeropuertos :

Aeropuerto Internacional de Honiara

Honiara, Guadalcanal, Islas Salomón

latitud: 09-25S, longitud: 160-03E, altitud: 8 m

Observación

El informe se hizo hace 50 minutos, a las 19:00 UTC
Viento 3 kt del este-sureste
Temperatura 23°C
Humedad 100%
Presión 1012 hPa
Visibilidad 10 km o más
Escasas nubes a una altura de 1300 ft

METAR: AGGH 211900Z 11003KT 9999 FEW013 23/23 Q1012

Hora: 06:50 (19:50 UTC)

Pronóstico

El informe se hizo hace 3 horas y 0 minutos, a las 16:50 UTC
Pronóstico válido del 21 a las 18 UTC al 22 a las 18 UTC
Viento 6 kt del sur-sureste
Visibilidad 10 km o más
Escasas nubes a una altura de 1600 ft
A partir de las 21 a las 2300 UTC
Viento 13 kt del este-noreste
Visibilidad: 1010 m
Nubes dispersas a una altura de 1900 ft
Nubes dispersas a una altura de 10000 ft

TAF: AGGH 211650Z 2118/2218 16006KT 9999 FEW016 FM212300 07013KT 9999 SCT019 SCT100 T 22 27 30 31 Q 1010 1012 1012 1010

Observaciones y pronósticos meteorológicos de más de 4000 aeropuertos (mensajes METAR y TAF).

Los puntos amarillos y rojos representan las estaciones disponibles.

Ponga el ratón en el punto deseado para ver el nombre de la estación.

Haga clic para ver las observaciones y los pronósticos meteorológicos.

Para cambiar el mapa : haga clic en los botones verdes con una cruz de color negro para hacer un zoom, en el botón verde con un guión para alejar o en las flechas verdes para mapas adyacentes.


METAR-TAF: